sensor_id;sensor_type;location;lat;lon;timestamp;P1;durP1;ratioP1;P2;durP2;ratioP2
5454;SDS011;2750;49.050;9.250;2024-01-15T00:01:36;30.87;;;13.37;;
5454;SDS011;2750;49.050;9.250;2024-01-15T00:06:38;27.80;;;11.97;;
5454;SDS011;2750;49.050;9.250;2024-01-15T00:11:40;31.23;;;13.30;;
5454;SDS011;2750;49.050;9.250;2024-01-15T00:16:42;26.67;;;12.47;;
5454;SDS011;2750;49.050;9.250;2024-01-15T00:21:44;26.67;;;12.50;;
5454;SDS011;2750;49.050;9.250;2024-01-15T00:26:46;35.33;;;15.43;;
5454;SDS011;2750;49.050;9.250;2024-01-15T00:31:47;27.80;;;11.57;;
5454;SDS011;2750;49.050;9.250;2024-01-15T00:36:50;33.33;;;14.10;;
5454;SDS011;2750;49.050;9.250;2024-01-15T00:41:52;28.67;;;13.43;;
5454;SDS011;2750;49.050;9.250;2024-01-15T00:46:53;25.77;;;11.80;;
5454;SDS011;2750;49.050;9.250;2024-01-15T00:51:56;26.70;;;12.10;;
5454;SDS011;2750;49.050;9.250;2024-01-15T00:56:58;27.50;;;13.27;;
5454;SDS011;2750;49.050;9.250;2024-01-15T01:01:59;21.07;;;10.20;;
5454;SDS011;2750;49.050;9.250;2024-01-15T01:07:02;18.80;;;8.60;;
5454;SDS011;2750;49.050;9.250;2024-01-15T01:12:04;31.17;;;12.87;;
5454;SDS011;2750;49.050;9.250;2024-01-15T01:17:05;26.23;;;12.33;;
5454;SDS011;2750;49.050;9.250;2024-01-15T01:22:08;29.53;;;13.23;;
5454;SDS011;2750;49.050;9.250;2024-01-15T01:27:10;22.80;;;11.43;;
5454;SDS011;2750;49.050;9.250;2024-01-15T01:32:11;28.17;;;12.03;;
5454;SDS011;2750;49.050;9.250;2024-01-15T01:37:14;24.13;;;12.43;;
5454;SDS011;2750;49.050;9.250;2024-01-15T01:42:16;22.30;;;10.67;;
5454;SDS011;2750;49.050;9.250;2024-01-15T01:47:17;20.20;;;9.83;;
5454;SDS011;2750;49.050;9.250;2024-01-15T01:52:21;20.20;;;10.10;;
5454;SDS011;2750;49.050;9.250;2024-01-15T01:57:23;24.77;;;11.37;;
5454;SDS011;2750;49.050;9.250;2024-01-15T02:02:24;27.00;;;10.20;;
5454;SDS011;2750;49.050;9.250;2024-01-15T02:07:28;25.53;;;12.73;;
5454;SDS011;2750;49.050;9.250;2024-01-15T02:12:29;25.40;;;11.40;;
5454;SDS011;2750;49.050;9.250;2024-01-15T02:17:31;19.37;;;11.27;;
5454;SDS011;2750;49.050;9.250;2024-01-15T02:22:34;20.07;;;11.97;;
5454;SDS011;2750;49.050;9.250;2024-01-15T02:27:36;19.73;;;9.00;;
5454;SDS011;2750;49.050;9.250;2024-01-15T02:32:38;25.17;;;11.83;;
5454;SDS011;2750;49.050;9.250;2024-01-15T02:37:39;20.63;;;9.40;;
5454;SDS011;2750;49.050;9.250;2024-01-15T02:42:42;13.70;;;7.73;;
5454;SDS011;2750;49.050;9.250;2024-01-15T02:47:44;21.60;;;10.63;;
5454;SDS011;2750;49.050;9.250;2024-01-15T02:52:45;23.40;;;12.97;;
5454;SDS011;2750;49.050;9.250;2024-01-15T02:57:48;23.53;;;10.13;;
5454;SDS011;2750;49.050;9.250;2024-01-15T03:02:50;17.77;;;8.87;;
5454;SDS011;2750;49.050;9.250;2024-01-15T03:07:52;24.40;;;12.50;;
5454;SDS011;2750;49.050;9.250;2024-01-15T03:12:55;24.70;;;12.00;;
5454;SDS011;2750;49.050;9.250;2024-01-15T03:17:56;22.73;;;10.83;;
5454;SDS011;2750;49.050;9.250;2024-01-15T03:22:58;23.70;;;10.60;;
5454;SDS011;2750;49.050;9.250;2024-01-15T03:28:01;20.47;;;10.70;;
5454;SDS011;2750;49.050;9.250;2024-01-15T03:33:02;22.20;;;10.67;;
5454;SDS011;2750;49.050;9.250;2024-01-15T03:38:04;11.60;;;7.00;;
5454;SDS011;2750;49.050;9.250;2024-01-15T03:43:07;17.80;;;10.63;;
5454;SDS011;2750;49.050;9.250;2024-01-15T03:48:08;20.53;;;10.77;;
5454;SDS011;2750;49.050;9.250;2024-01-15T03:53:10;15.63;;;8.00;;
5454;SDS011;2750;49.050;9.250;2024-01-15T03:58:12;22.20;;;10.93;;
5454;SDS011;2750;49.050;9.250;2024-01-15T04:03:15;20.93;;;10.10;;
5454;SDS011;2750;49.050;9.250;2024-01-15T04:08:17;16.07;;;9.60;;
5454;SDS011;2750;49.050;9.250;2024-01-15T04:13:20;17.33;;;9.10;;
5454;SDS011;2750;49.050;9.250;2024-01-15T04:18:21;15.87;;;10.70;;
5454;SDS011;2750;49.050;9.250;2024-01-15T04:23:22;20.63;;;10.40;;
5454;SDS011;2750;49.050;9.250;2024-01-15T04:28:25;18.90;;;10.37;;
5454;SDS011;2750;49.050;9.250;2024-01-15T04:33:27;20.30;;;11.03;;
5454;SDS011;2750;49.050;9.250;2024-01-15T04:38:28;13.27;;;7.20;;
5454;SDS011;2750;49.050;9.250;2024-01-15T04:43:31;19.50;;;11.47;;
5454;SDS011;2750;49.050;9.250;2024-01-15T04:48:32;22.37;;;11.20;;
5454;SDS011;2750;49.050;9.250;2024-01-15T04:53:34;19.67;;;11.17;;
5454;SDS011;2750;49.050;9.250;2024-01-15T04:58:37;20.13;;;10.03;;
5454;SDS011;2750;49.050;9.250;2024-01-15T05:03:39;18.93;;;10.17;;
5454;SDS011;2750;49.050;9.250;2024-01-15T05:08:40;21.47;;;8.93;;
5454;SDS011;2750;49.050;9.250;2024-01-15T05:13:43;20.37;;;11.03;;
5454;SDS011;2750;49.050;9.250;2024-01-15T05:18:44;19.23;;;9.40;;
5454;SDS011;2750;49.050;9.250;2024-01-15T05:23:46;17.50;;;9.43;;
5454;SDS011;2750;49.050;9.250;2024-01-15T05:28:49;19.37;;;9.33;;
5454;SDS011;2750;49.050;9.250;2024-01-15T05:33:50;18.67;;;10.73;;
5454;SDS011;2750;49.050;9.250;2024-01-15T05:38:52;19.77;;;9.23;;
5454;SDS011;2750;49.050;9.250;2024-01-15T05:43:55;18.83;;;10.50;;
5454;SDS011;2750;49.050;9.250;2024-01-15T05:48:56;16.23;;;8.20;;
5454;SDS011;2750;49.050;9.250;2024-01-15T05:53:57;21.57;;;10.93;;
5454;SDS011;2750;49.050;9.250;2024-01-15T05:59:00;18.57;;;10.47;;
5454;SDS011;2750;49.050;9.250;2024-01-15T06:04:02;17.03;;;9.73;;
5454;SDS011;2750;49.050;9.250;2024-01-15T06:09:06;18.43;;;9.67;;
5454;SDS011;2750;49.050;9.250;2024-01-15T06:14:10;20.70;;;9.13;;
5454;SDS011;2750;49.050;9.250;2024-01-15T06:19:11;18.90;;;9.60;;
5454;SDS011;2750;49.050;9.250;2024-01-15T06:24:13;18.30;;;9.43;;
5454;SDS011;2750;49.050;9.250;2024-01-15T06:29:16;22.03;;;11.00;;
5454;SDS011;2750;49.050;9.250;2024-01-15T06:34:18;14.93;;;8.47;;
5454;SDS011;2750;49.050;9.250;2024-01-15T06:39:19;14.70;;;8.67;;
5454;SDS011;2750;49.050;9.250;2024-01-15T06:44:22;13.30;;;6.80;;
5454;SDS011;2750;49.050;9.250;2024-01-15T06:49:23;19.47;;;10.33;;
5454;SDS011;2750;49.050;9.250;2024-01-15T06:54:25;14.03;;;8.47;;
5454;SDS011;2750;49.050;9.250;2024-01-15T06:59:28;18.83;;;9.63;;
5454;SDS011;2750;49.050;9.250;2024-01-15T07:04:29;14.53;;;7.53;;
5454;SDS011;2750;49.050;9.250;2024-01-15T07:09:31;17.20;;;8.87;;
5454;SDS011;2750;49.050;9.250;2024-01-15T07:14:34;17.90;;;9.07;;
5454;SDS011;2750;49.050;9.250;2024-01-15T07:19:35;15.73;;;8.67;;
5454;SDS011;2750;49.050;9.250;2024-01-15T07:24:37;20.17;;;10.17;;
5454;SDS011;2750;49.050;9.250;2024-01-15T07:29:39;16.63;;;9.33;;
5454;SDS011;2750;49.050;9.250;2024-01-15T07:34:42;18.97;;;9.40;;
5454;SDS011;2750;49.050;9.250;2024-01-15T07:39:44;15.70;;;8.63;;
5454;SDS011;2750;49.050;9.250;2024-01-15T07:44:47;15.73;;;9.20;;
5454;SDS011;2750;49.050;9.250;2024-01-15T07:49:48;14.20;;;8.63;;
5454;SDS011;2750;49.050;9.250;2024-01-15T07:54:50;15.97;;;8.47;;
5454;SDS011;2750;49.050;9.250;2024-01-15T07:59:52;17.47;;;9.80;;
5454;SDS011;2750;49.050;9.250;2024-01-15T08:04:54;15.60;;;9.77;;
5454;SDS011;2750;49.050;9.250;2024-01-15T08:09:55;16.53;;;9.37;;
5454;SDS011;2750;49.050;9.250;2024-01-15T08:14:58;15.27;;;9.53;;
5454;SDS011;2750;49.050;9.250;2024-01-15T08:20:00;14.97;;;8.70;;
5454;SDS011;2750;49.050;9.250;2024-01-15T08:25:01;16.73;;;9.60;;
5454;SDS011;2750;49.050;9.250;2024-01-15T08:30:05;22.93;;;9.90;;
5454;SDS011;2750;49.050;9.250;2024-01-15T08:35:07;14.37;;;9.20;;
5454;SDS011;2750;49.050;9.250;2024-01-15T08:40:09;13.90;;;8.27;;
5454;SDS011;2750;49.050;9.250;2024-01-15T08:45:13;11.40;;;7.40;;
5454;SDS011;2750;49.050;9.250;2024-01-15T08:50:15;12.83;;;7.73;;
5454;SDS011;2750;49.050;9.250;2024-01-15T08:55:16;12.17;;;8.03;;
5454;SDS011;2750;49.050;9.250;2024-01-15T09:00:19;15.87;;;9.90;;
5454;SDS011;2750;49.050;9.250;2024-01-15T09:05:21;15.07;;;7.97;;
5454;SDS011;2750;49.050;9.250;2024-01-15T09:10:22;9.90;;;6.73;;
5454;SDS011;2750;49.050;9.250;2024-01-15T09:15:25;12.87;;;7.17;;
5454;SDS011;2750;49.050;9.250;2024-01-15T09:20:27;9.77;;;6.67;;
5454;SDS011;2750;49.050;9.250;2024-01-15T09:25:29;9.67;;;6.63;;
5454;SDS011;2750;49.050;9.250;2024-01-15T09:30:32;14.00;;;7.80;;
5454;SDS011;2750;49.050;9.250;2024-01-15T09:35:33;12.43;;;7.37;;
5454;SDS011;2750;49.050;9.250;2024-01-15T09:40:35;10.47;;;6.60;;
5454;SDS011;2750;49.050;9.250;2024-01-15T09:45:41;11.93;;;6.43;;
5454;SDS011;2750;49.050;9.250;2024-01-15T09:50:42;9.60;;;6.77;;
5454;SDS011;2750;49.050;9.250;2024-01-15T09:55:44;9.93;;;6.60;;
5454;SDS011;2750;49.050;9.250;2024-01-15T10:00:48;10.43;;;7.03;;
5454;SDS011;2750;49.050;9.250;2024-01-15T10:05:50;17.30;;;9.87;;
5454;SDS011;2750;49.050;9.250;2024-01-15T10:10:52;11.83;;;6.23;;
5454;SDS011;2750;49.050;9.250;2024-01-15T10:15:54;9.73;;;6.57;;
5454;SDS011;2750;49.050;9.250;2024-01-15T10:20:56;13.27;;;5.50;;
5454;SDS011;2750;49.050;9.250;2024-01-15T10:25:58;9.47;;;5.63;;
5454;SDS011;2750;49.050;9.250;2024-01-15T10:31:01;10.03;;;6.67;;
5454;SDS011;2750;49.050;9.250;2024-01-15T10:36:03;9.37;;;6.70;;
5454;SDS011;2750;49.050;9.250;2024-01-15T10:41:11;8.20;;;5.40;;
5454;SDS011;2750;49.050;9.250;2024-01-15T10:46:14;12.40;;;7.37;;
5454;SDS011;2750;49.050;9.250;2024-01-15T10:51:15;10.87;;;6.47;;
5454;SDS011;2750;49.050;9.250;2024-01-15T10:56:17;9.83;;;6.27;;
5454;SDS011;2750;49.050;9.250;2024-01-15T11:01:21;12.07;;;6.60;;
5454;SDS011;2750;49.050;9.250;2024-01-15T11:06:23;13.60;;;6.70;;
5454;SDS011;2750;49.050;9.250;2024-01-15T11:11:26;13.63;;;7.47;;
5454;SDS011;2750;49.050;9.250;2024-01-15T11:16:30;15.93;;;9.07;;
5454;SDS011;2750;49.050;9.250;2024-01-15T11:21:56;12.30;;;7.93;;
5454;SDS011;2750;49.050;9.250;2024-01-15T11:26:57;11.67;;;7.57;;
5454;SDS011;2750;49.050;9.250;2024-01-15T11:32:00;12.03;;;7.47;;
5454;SDS011;2750;49.050;9.250;2024-01-15T11:37:04;12.10;;;7.80;;
5454;SDS011;2750;49.050;9.250;2024-01-15T11:42:06;14.13;;;8.20;;
5454;SDS011;2750;49.050;9.250;2024-01-15T11:47:09;10.60;;;8.00;;
5454;SDS011;2750;49.050;9.250;2024-01-15T11:52:12;9.97;;;7.80;;
5454;SDS011;2750;49.050;9.250;2024-01-15T11:57:19;10.97;;;6.97;;
5454;SDS011;2750;49.050;9.250;2024-01-15T12:02:28;11.47;;;7.57;;
5454;SDS011;2750;49.050;9.250;2024-01-15T12:07:30;14.97;;;8.80;;
5454;SDS011;2750;49.050;9.250;2024-01-15T12:12:34;11.47;;;7.13;;
5454;SDS011;2750;49.050;9.250;2024-01-15T12:17:46;12.03;;;6.50;;
5454;SDS011;2750;49.050;9.250;2024-01-15T12:22:49;12.63;;;7.97;;
5454;SDS011;2750;49.050;9.250;2024-01-15T12:27:50;9.70;;;6.30;;
5454;SDS011;2750;49.050;9.250;2024-01-15T12:32:54;11.13;;;6.47;;
5454;SDS011;2750;49.050;9.250;2024-01-15T12:37:55;11.00;;;6.60;;
5454;SDS011;2750;49.050;9.250;2024-01-15T12:42:57;6.70;;;4.70;;
5454;SDS011;2750;49.050;9.250;2024-01-15T12:48:00;10.90;;;6.70;;
5454;SDS011;2750;49.050;9.250;2024-01-15T12:53:03;10.50;;;5.73;;
5454;SDS011;2750;49.050;9.250;2024-01-15T12:58:05;9.60;;;6.23;;
5454;SDS011;2750;49.050;9.250;2024-01-15T13:03:08;8.50;;;5.20;;
5454;SDS011;2750;49.050;9.250;2024-01-15T13:08:13;11.87;;;6.50;;
5454;SDS011;2750;49.050;9.250;2024-01-15T13:13:15;7.63;;;5.30;;
5454;SDS011;2750;49.050;9.250;2024-01-15T13:18:17;8.73;;;5.60;;
5454;SDS011;2750;49.050;9.250;2024-01-15T13:23:19;8.07;;;4.93;;
5454;SDS011;2750;49.050;9.250;2024-01-15T13:28:21;9.37;;;6.27;;
5454;SDS011;2750;49.050;9.250;2024-01-15T13:33:23;13.43;;;8.43;;
5454;SDS011;2750;49.050;9.250;2024-01-15T13:38:25;13.03;;;8.37;;
5454;SDS011;2750;49.050;9.250;2024-01-15T13:43:27;10.13;;;7.13;;
5454;SDS011;2750;49.050;9.250;2024-01-15T13:48:30;14.30;;;9.03;;
5454;SDS011;2750;49.050;9.250;2024-01-15T13:53:32;11.73;;;8.30;;
5454;SDS011;2750;49.050;9.250;2024-01-15T13:58:34;12.03;;;7.73;;
5454;SDS011;2750;49.050;9.250;2024-01-15T14:03:37;14.33;;;9.77;;
5454;SDS011;2750;49.050;9.250;2024-01-15T14:08:38;11.30;;;8.50;;
5454;SDS011;2750;49.050;9.250;2024-01-15T14:13:40;13.10;;;9.70;;
5454;SDS011;2750;49.050;9.250;2024-01-15T14:18:43;10.67;;;7.23;;
5454;SDS011;2750;49.050;9.250;2024-01-15T14:23:44;11.97;;;7.53;;
5454;SDS011;2750;49.050;9.250;2024-01-15T14:28:46;11.47;;;7.40;;
5454;SDS011;2750;49.050;9.250;2024-01-15T14:33:49;11.60;;;7.97;;
5454;SDS011;2750;49.050;9.250;2024-01-15T14:38:51;11.30;;;9.13;;
5454;SDS011;2750;49.050;9.250;2024-01-15T14:43:52;8.97;;;6.93;;
5454;SDS011;2750;49.050;9.250;2024-01-15T14:48:55;17.93;;;9.93;;
5454;SDS011;2750;49.050;9.250;2024-01-15T14:53:56;15.07;;;9.20;;
5454;SDS011;2750;49.050;9.250;2024-01-15T14:58:58;11.50;;;8.40;;
5454;SDS011;2750;49.050;9.250;2024-01-15T15:04:01;13.20;;;8.67;;
5454;SDS011;2750;49.050;9.250;2024-01-15T15:09:03;9.80;;;7.63;;
5454;SDS011;2750;49.050;9.250;2024-01-15T15:14:08;13.03;;;9.13;;
5454;SDS011;2750;49.050;9.250;2024-01-15T15:19:11;9.23;;;6.40;;
5454;SDS011;2750;49.050;9.250;2024-01-15T15:24:13;4.07;;;2.43;;
5454;SDS011;2750;49.050;9.250;2024-01-15T15:29:14;11.10;;;7.97;;
5454;SDS011;2750;49.050;9.250;2024-01-15T15:34:18;10.80;;;7.33;;
5454;SDS011;2750;49.050;9.250;2024-01-15T15:39:19;9.93;;;7.77;;
5454;SDS011;2750;49.050;9.250;2024-01-15T15:44:21;12.20;;;8.20;;
5454;SDS011;2750;49.050;9.250;2024-01-15T15:49:24;12.03;;;8.37;;
5454;SDS011;2750;49.050;9.250;2024-01-15T15:54:25;11.27;;;6.90;;
5454;SDS011;2750;49.050;9.250;2024-01-15T15:59:27;9.43;;;6.20;;
5454;SDS011;2750;49.050;9.250;2024-01-15T16:04:30;10.17;;;7.40;;
5454;SDS011;2750;49.050;9.250;2024-01-15T16:09:31;12.07;;;7.63;;
5454;SDS011;2750;49.050;9.250;2024-01-15T16:14:34;10.07;;;7.23;;
5454;SDS011;2750;49.050;9.250;2024-01-15T16:19:36;12.50;;;7.27;;
5454;SDS011;2750;49.050;9.250;2024-01-15T16:24:39;11.60;;;5.53;;
5454;SDS011;2750;49.050;9.250;2024-01-15T16:29:41;12.00;;;7.43;;
5454;SDS011;2750;49.050;9.250;2024-01-15T16:34:44;10.27;;;7.27;;
5454;SDS011;2750;49.050;9.250;2024-01-15T16:39:45;11.87;;;8.23;;
5454;SDS011;2750;49.050;9.250;2024-01-15T16:44:47;12.77;;;8.03;;
5454;SDS011;2750;49.050;9.250;2024-01-15T16:49:50;14.07;;;8.03;;
5454;SDS011;2750;49.050;9.250;2024-01-15T16:54:51;12.97;;;8.63;;
5454;SDS011;2750;49.050;9.250;2024-01-15T16:59:53;10.40;;;7.77;;
5454;SDS011;2750;49.050;9.250;2024-01-15T17:04:55;12.07;;;7.73;;
5454;SDS011;2750;49.050;9.250;2024-01-15T17:09:57;10.57;;;7.47;;
5454;SDS011;2750;49.050;9.250;2024-01-15T17:14:59;11.53;;;8.17;;
5454;SDS011;2750;49.050;9.250;2024-01-15T17:20:01;21.40;;;12.67;;
5454;SDS011;2750;49.050;9.250;2024-01-15T17:25:04;19.53;;;11.03;;
5454;SDS011;2750;49.050;9.250;2024-01-15T17:30:06;15.03;;;9.47;;
5454;SDS011;2750;49.050;9.250;2024-01-15T17:35:10;14.63;;;8.00;;
5454;SDS011;2750;49.050;9.250;2024-01-15T17:40:11;14.07;;;8.57;;
5454;SDS011;2750;49.050;9.250;2024-01-15T17:45:13;11.93;;;8.57;;
5454;SDS011;2750;49.050;9.250;2024-01-15T17:50:16;14.47;;;8.43;;
5454;SDS011;2750;49.050;9.250;2024-01-15T17:55:18;11.60;;;7.53;;
5454;SDS011;2750;49.050;9.250;2024-01-15T18:00:20;15.27;;;8.50;;
5454;SDS011;2750;49.050;9.250;2024-01-15T18:05:23;10.90;;;8.07;;
5454;SDS011;2750;49.050;9.250;2024-01-15T18:10:25;14.17;;;7.60;;
5454;SDS011;2750;49.050;9.250;2024-01-15T18:15:27;11.17;;;7.23;;
5454;SDS011;2750;49.050;9.250;2024-01-15T18:20:30;10.97;;;7.10;;
5454;SDS011;2750;49.050;9.250;2024-01-15T18:25:32;9.57;;;6.30;;
5454;SDS011;2750;49.050;9.250;2024-01-15T18:30:33;9.37;;;6.10;;
5454;SDS011;2750;49.050;9.250;2024-01-15T18:35:37;10.47;;;6.83;;
5454;SDS011;2750;49.050;9.250;2024-01-15T18:40:39;9.67;;;6.00;;
5454;SDS011;2750;49.050;9.250;2024-01-15T18:45:41;10.40;;;6.03;;
5454;SDS011;2750;49.050;9.250;2024-01-15T18:50:46;11.47;;;6.30;;
5454;SDS011;2750;49.050;9.250;2024-01-15T18:55:49;11.27;;;6.77;;
5454;SDS011;2750;49.050;9.250;2024-01-15T19:00:50;11.83;;;6.17;;
5454;SDS011;2750;49.050;9.250;2024-01-15T19:05:53;8.10;;;6.63;;
5454;SDS011;2750;49.050;9.250;2024-01-15T19:10:54;9.83;;;6.43;;
5454;SDS011;2750;49.050;9.250;2024-01-15T19:15:56;6.73;;;4.77;;
5454;SDS011;2750;49.050;9.250;2024-01-15T19:21:00;6.40;;;4.80;;
5454;SDS011;2750;49.050;9.250;2024-01-15T19:26:01;8.50;;;4.67;;
5454;SDS011;2750;49.050;9.250;2024-01-15T19:31:04;6.83;;;4.90;;
5454;SDS011;2750;49.050;9.250;2024-01-15T19:36:07;6.83;;;4.57;;
5454;SDS011;2750;49.050;9.250;2024-01-15T19:41:10;7.40;;;4.40;;
5454;SDS011;2750;49.050;9.250;2024-01-15T19:46:11;10.00;;;3.80;;
5454;SDS011;2750;49.050;9.250;2024-01-15T19:51:14;7.53;;;4.00;;
5454;SDS011;2750;49.050;9.250;2024-01-15T19:56:15;5.67;;;3.70;;
5454;SDS011;2750;49.050;9.250;2024-01-15T20:01:17;5.23;;;4.37;;
5454;SDS011;2750;49.050;9.250;2024-01-15T20:06:20;6.83;;;4.37;;
5454;SDS011;2750;49.050;9.250;2024-01-15T20:11:23;5.27;;;3.67;;
5454;SDS011;2750;49.050;9.250;2024-01-15T20:16:24;8.47;;;4.93;;
5454;SDS011;2750;49.050;9.250;2024-01-15T20:21:27;6.43;;;4.67;;
5454;SDS011;2750;49.050;9.250;2024-01-15T20:26:29;5.20;;;4.27;;
5454;SDS011;2750;49.050;9.250;2024-01-15T20:31:30;5.70;;;4.20;;
5454;SDS011;2750;49.050;9.250;2024-01-15T20:36:33;4.87;;;3.50;;
5454;SDS011;2750;49.050;9.250;2024-01-15T20:41:35;6.07;;;4.07;;
5454;SDS011;2750;49.050;9.250;2024-01-15T20:46:36;4.80;;;3.37;;
5454;SDS011;2750;49.050;9.250;2024-01-15T20:51:39;8.80;;;3.77;;
5454;SDS011;2750;49.050;9.250;2024-01-15T20:56:41;6.43;;;3.80;;
5454;SDS011;2750;49.050;9.250;2024-01-15T21:01:42;5.87;;;3.60;;
5454;SDS011;2750;49.050;9.250;2024-01-15T21:06:45;5.57;;;4.33;;
5454;SDS011;2750;49.050;9.250;2024-01-15T21:11:47;5.57;;;3.80;;
5454;SDS011;2750;49.050;9.250;2024-01-15T21:16:48;5.43;;;3.87;;
5454;SDS011;2750;49.050;9.250;2024-01-15T21:21:51;4.97;;;3.47;;
5454;SDS011;2750;49.050;9.250;2024-01-15T21:26:53;5.20;;;4.00;;
5454;SDS011;2750;49.050;9.250;2024-01-15T21:31:56;5.80;;;3.30;;
5454;SDS011;2750;49.050;9.250;2024-01-15T21:36:59;6.97;;;3.73;;
5454;SDS011;2750;49.050;9.250;2024-01-15T21:42:01;6.37;;;3.40;;
5454;SDS011;2750;49.050;9.250;2024-01-15T21:47:03;9.23;;;4.60;;
5454;SDS011;2750;49.050;9.250;2024-01-15T21:52:06;4.83;;;3.77;;
5454;SDS011;2750;49.050;9.250;2024-01-15T21:57:09;5.80;;;3.93;;
5454;SDS011;2750;49.050;9.250;2024-01-15T22:02:10;7.80;;;4.30;;
5454;SDS011;2750;49.050;9.250;2024-01-15T22:07:13;6.63;;;4.70;;
5454;SDS011;2750;49.050;9.250;2024-01-15T22:12:15;7.10;;;4.93;;
5454;SDS011;2750;49.050;9.250;2024-01-15T22:17:16;7.47;;;4.37;;
5454;SDS011;2750;49.050;9.250;2024-01-15T22:22:19;7.03;;;4.80;;
5454;SDS011;2750;49.050;9.250;2024-01-15T22:27:21;10.00;;;4.70;;
5454;SDS011;2750;49.050;9.250;2024-01-15T22:32:22;4.57;;;3.23;;
5454;SDS011;2750;49.050;9.250;2024-01-15T22:37:25;8.10;;;4.90;;
5454;SDS011;2750;49.050;9.250;2024-01-15T22:42:26;8.43;;;4.77;;
5454;SDS011;2750;49.050;9.250;2024-01-15T22:47:28;8.13;;;4.60;;
5454;SDS011;2750;49.050;9.250;2024-01-15T22:52:31;8.07;;;4.40;;
5454;SDS011;2750;49.050;9.250;2024-01-15T22:57:33;7.80;;;4.30;;
5454;SDS011;2750;49.050;9.250;2024-01-15T23:02:35;7.17;;;4.63;;
5454;SDS011;2750;49.050;9.250;2024-01-15T23:07:38;5.17;;;4.37;;
5454;SDS011;2750;49.050;9.250;2024-01-15T23:12:40;7.20;;;4.67;;
5454;SDS011;2750;49.050;9.250;2024-01-15T23:17:42;7.93;;;4.53;;
5454;SDS011;2750;49.050;9.250;2024-01-15T23:22:46;6.33;;;5.13;;
5454;SDS011;2750;49.050;9.250;2024-01-15T23:27:48;10.37;;;4.40;;
5454;SDS011;2750;49.050;9.250;2024-01-15T23:32:49;4.90;;;4.43;;
5454;SDS011;2750;49.050;9.250;2024-01-15T23:37:53;8.20;;;4.60;;
5454;SDS011;2750;49.050;9.250;2024-01-15T23:42:54;7.97;;;4.60;;
5454;SDS011;2750;49.050;9.250;2024-01-15T23:47:56;5.33;;;4.43;;
5454;SDS011;2750;49.050;9.250;2024-01-15T23:52:59;5.93;;;4.87;;
5454;SDS011;2750;49.050;9.250;2024-01-15T23:58:00;7.30;;;4.53;;
